Meteo4 di Emilio Bellavite Il primo osservatorio Meteo di Verona  
 
sabato 24 febbraio 2024
 
 
dati in tempo reale
Di seguito i dati in tempo reale delle stazioni on line della rete di Meteo4. Cliccando sul link della stazione, ove presente, si accederà al sito web personale.
Stazioni online
Località Giorno Ora Temp. Umid. Relat. Dew Point Press. Atm. Velocità Vento Direz. Vento Precip. Temp.
Min
Temp.
Max
Abano (PD) 24/02/24 20.20 8.7 °C 92 % 7.5 °C 1010.0 hPa 0.0 Km/h --- 0.0 mm  4.2 °C 13.0 °C
Acquapendente (VT) 24/02/24 20.28 6.9 °C 83 % 4.2 °C 1011.4 hPa 0.0 Km/h SSW 0.5 mm  0.8 °C 13.5 °C
Acquaviva delle Fonti (BA) 24/02/24 20.28 11.3 °C 90 % 9.8 °C 1011.6 hPa 5.0 Km/h SSE 2.2 mm  10.7 °C 14.1 °C
Agordo ARPAV (BL) 24/02/24 20.00 3.7 °C 95 % 3.0 °C  hPa 4.3 Km/h SE 2.4 mm  -0.2 °C 6.7 °C
Ala (TN) 24/02/24 20.28 7.2 °C 89 % 5.5 °C 1010.4 hPa 0.0 Km/h ENE 1.0 mm  3.1 °C 9.0 °C
Albisano (VR) 24/02/24 20.10 6.8 °C 82 % 3.9 °C 1006.1 hPa 14.6 Km/h E 0.4 mm  4.3 °C 10.7 °C
Ancona loc. Brecce Bianche (AN) 24/02/24 20.25 10.1 °C 82 % 7.2 °C 1012.0 hPa 0.0 Km/h NW 0.0 mm  8.2 °C 15.1 °C
Arabba ARPAV (BL) 24/02/24 20.00 -2.6 °C 100 % -2.6 °C  hPa 2.2 Km/h ESE 2.0 mm  -7.4 °C 0.2 °C
Arbizzano di Negrar Zai (VR) 23/02/24 17.06 9.8 °C 99 % 9.6 °C 994.5 hPa 1.9 Km/h SE 17.8 mm  9.7 °C 11.4 °C
Ardea (RM) 24/02/24 20.28 9.4 °C 95 % 8.6 °C 1011.8 hPa 12.3 Km/h E 3.1 mm  8.1 °C 16.2 °C
Arquā Polesine (RO) 24/02/24 20.25 8.7 °C 86 % 6.5 °C 1011.4 hPa 0.0 Km/h - 0.2 mm  2.0 °C 15.6 °C
Arzignano loc. Castello (VI) 24/02/24 19.45 9.1 °C 83 % 6.3 °C 1007.8 hPa 0.0 Km/h --- 0.0 mm  4.0 °C 12.8 °C
Arzignano Pugnello (VI) 24/02/24 20.25 7.7 °C 1 % -45.3 °C 1008.5 hPa 0.0 Km/h NW 0.2 mm  3.4 °C 10.4 °C
Asiago Rifugio Val Formica (VI) 24/02/24 20.25 -2.0 °C 98 % -2.2 °C 1012.3 hPa 0.0 Km/h NNE 0.2 mm  -9.0 °C -1.2 °C
Asiago aeroporto ARPAV (VI) 24/02/24 20.00 1.3 °C 89 % -0.3 °C 1011.1 hPa 13.0 Km/h ENE 1.0 mm  -3.8 °C 4.9 °C
Auronzo ARPAV (BL) 24/02/24 20.00 1.0 °C 100 % 1.0 °C  hPa 1.8 Km/h WSW 2.8 mm  0.0 °C 4.2 °C
Avenza-Carrara (MS) 24/02/24 20.20 8.6 °C 82 % 5.7 °C 1010.1 hPa 0.0 Km/h --- 0.2 mm  8.5 °C 14.9 °C
Avio (TN) 24/02/24 20.28 7.8 °C 90 % 6.3 °C 1009.6 hPa 0.0 Km/h ESE 1.5 mm  3.9 °C 9.8 °C
Badia Calavena fraz. S. Andrea (VR) 24/02/24 20.14 5.8 °C 90 % 4.2 °C 1026.1 hPa 3.1 Km/h N 0.3 mm  0.6 °C 9.9 °C
Badia Calavena loc. San Valentino (VR) 24/02/24 20.28 4.8 °C 91 % 3.5 °C 1007.4 hPa 6.4 Km/h NNE 0.0 mm  2.5 °C 7.9 °C
Balbido (TN) 24/02/24 20.24 2.1 °C 99 % 2.0 °C 1012.4 hPa 0.5 Km/h W 4.6 mm  -0.9 °C 4.2 °C
Bassano del Grappa ARPAV (VI) 24/02/24 20.00 8.1 °C 80 % 4.9 °C  hPa 18.7 Km/h N 2.8 mm  5.6 °C 12.3 °C
Belluno - aeroporto ARPAV (BL) 24/02/24 20.00 5.5 °C 100 % 5.5 °C 1012.5 hPa 1.8 Km/h NE 2.0 mm  3.6 °C 9.6 °C
Besenello (TN) 24/02/24 20.27 6.2 °C 89 % 4.5 °C 1010.9 hPa 3.9 Km/h SW 1.0 mm  2.4 °C 8.2 °C
Besozzo (VA) 24/02/24 20.28 5.9 °C 93 % 4.9 °C 989.9 hPa 3.2 Km/h NNW 1.5 mm  3.1 °C 8.9 °C
Bibione ARPAV (VE) 24/02/24 20.00 9.2 °C 100 % 9.2 °C  hPa 6.1 Km/h ESE 0.0 mm  5.3 °C 13.6 °C
Bonorva (SS) 24/02/24 18.55 6.4 °C 88 % 4.5 °C 1009.9 hPa 0.0 Km/h E 5.4 mm  4.9 °C 10.9 °C
Borgo Pianon (BL) 24/02/24 20.25 0.8 °C 98 % 0.5 °C 1011.4 hPa 0.0 Km/h N 5.8 mm  -0.8 °C 5.5 °C
Borgo Valsugana (TN) 24/02/24 20.15 5.6 °C 86 % 3.4 °C 1010.8 hPa 0.0 Km/h SSW 0.0 mm  0.9 °C 8.2 °C
Bosco Chiesanuova ARPAV (VR) 24/02/24 20.00 1.8 °C 91 % 0.5 °C  hPa 4.7 Km/h SW 0.4 mm  0.7 °C 5.3 °C
Bovolenta ARPAV (PD) 24/02/24 20.00 8.5 °C  %  °C  hPa 0.0 Km/h 0.0 mm  3.7 °C 13.6 °C
Bovolone2 (VR) 24/02/24 20.25 9.6 °C 86 % 7.4 °C 1010.6 hPa 2.9 Km/h E 0.2 mm  3.7 °C 14.1 °C
Brebbia (VA) 24/02/24 20.00 6.8 °C 87 % 4.8 °C 1009.5 hPa 1.6 Km/h NNW 1.0 mm  3.6 °C 9.3 °C
Breganze loc. Maragnole (VI) 24/02/24 20.29 8.3 °C 83 % 5.6 °C 1010.8 hPa 8.0 Km/h NE 0.0 mm  2.4 °C 13.9 °C
Brendola ARPAV (VI) 24/02/24 20.00 9.8 °C 80 % 6.5 °C  hPa 4.0 Km/h ENE 0.0 mm  5.5 °C 13.9 °C
Bresega (PD) 24/02/24 20.24 9.8 °C 85 % 7.2 °C 1008.7 hPa 0.0 Km/h N 0.2 mm  5.4 °C 13.6 °C
Brognoligo (VR) 24/02/24 20.24 10.6 °C 83 % 7.8 °C 1006.9 hPa 0.0 Km/h ESE 0.2 mm  3.5 °C 13.8 °C
Brolo c/da Parrazzā (ME) 24/02/24 20.25 12.6 °C 93 % 11.5 °C 1012.2 hPa 0.0 Km/h SE 3.6 mm  11.4 °C 16.6 °C
Brustolé ARPAV (VI) 24/02/24 20.00 6.6 °C  %  °C  hPa 0.0 Km/h 2.0 mm  2.2 °C 7.9 °C
Budoia (PN) 24/02/24 20.15 8.0 °C 87 % 6.0 °C 1011.0 hPa 4.8 Km/h NW 4.6 mm  5.3 °C 12.7 °C
Budoia Malga Campo (PN) 24/02/24 20.25 -0.7 °C 99 % -0.8 °C 1015.6 hPa 6.0 Km/h NW 1.0 mm  -2.4 °C 0.9 °C
Calliano (TN) 24/02/24 20.28 6.3 °C 88 % 4.4 °C 1010.4 hPa 17.7 Km/h NE 0.8 mm  2.2 °C 8.2 °C
Calmasino ARPAV (VR) 24/02/24 20.00 7.6 °C 82 % 4.7 °C 1010.1 hPa 12.6 Km/h NE 0.6 mm  4.5 °C 12.6 °C
Caltabellotta (AG) 24/02/24 20.20 8.3 °C 94 % 7.4 °C 1011.1 hPa 0.0 Km/h WSW 6.6 mm  8.0 °C 10.1 °C
Campodarsego ARPAV (PD) 24/02/24 20.00 7.8 °C 100 % 7.8 °C  hPa 2.5 Km/h NE 0.2 mm  3.5 °C 13.0 °C
Campomolon ARPAV (VI) 24/02/24 20.00 -2.7 °C  %  °C  hPa 4.7 Km/h SW 0.0 mm  -5.1 °C -1.1 °C
Cansiglio - Tramedere ARPAV (BL) 24/02/24 20.00 0.7 °C 100 % 0.7 °C  hPa 1.8 Km/h NW 4.6 mm  -1.6 °C 3.5 °C
Cappella Maggiore (TV) 24/02/24 20.14 6.0 °C 94 % 5.0 °C 1006.1 hPa 0.7 Km/h NNW 0.0 mm  4.6 °C 15.0 °C
Caprarola Centro Storico (VT) 24/02/24 20.28 6.8 °C 79 % 3.4 °C 1009.0 hPa 1.9 Km/h WNW 0.0 mm  5.4 °C 11.9 °C
Caprarola San Rocco (VT) 24/02/24 20.28 5.8 °C 85 % 3.5 °C 1012.6 hPa 9.8 Km/h SE 0.0 mm  4.9 °C 9.4 °C
Caprile ARPAV (BL) 24/02/24 20.00 0.7 °C 100 % 0.7 °C  hPa 1.4 Km/h ESE 2.8 mm  -4.3 °C 3.1 °C
Caprino (VR) 24/02/24 20.25 5.4 °C 84 % 3.0 °C 1056.5 hPa 6.4 Km/h NNE 5.6 mm  3.9 °C 11.1 °C
Caprino loc. Platano ARPAV (VR) 24/02/24 20.00 5.9 °C 97 % 5.5 °C  hPa 4.3 Km/h NE 6.2 mm  4.7 °C 13.9 °C
Carezza (BZ) 24/02/24 20.24 -2.4 °C 88 % -4.2 °C 1015.6 hPa 0.0 Km/h WNW 0.0 mm  -8.3 °C -0.6 °C
Casaleone (VR) 24/02/24 20.25 9.6 °C 90 % 8.0 °C 1010.4 hPa 5.8 Km/h SE 0.2 mm  3.5 °C 13.9 °C
Casera Coltrondo ARPAV (BL) 24/02/24 20.00 -4.6 °C 95 % -5.3 °C  hPa 4.0 Km/h SE 0.0 mm  -6.6 °C -1.7 °C
Casera Doana ARPAV (BL) 24/02/24 20.00 -4.0 °C 96 % -4.5 °C  hPa 13.3 Km/h SE 0.0 mm  -5.0 °C -0.7 °C
Casera Palantina ARPAV (BL) 24/02/24 20.00 -0.7 °C 90 % -2.1 °C  hPa 7.2 Km/h ENE 0.0 mm  -2.4 °C 1.7 °C
Casera Pian dei Grassi Col. Visetin (TV) 24/02/24 20.18 1.6 °C 100 % 1.6 °C 0.0 hPa 0.0 Km/h - 1.1 mm  -0.7 °C 4.9 °C
Casotto (VI) 24/02/24 20.25 5.0 °C 93 % 4.0 °C 1009.1 hPa 1.6 Km/h ESE 3.0 mm  1.6 °C 8.8 °C
Cassone (VR) 24/02/24 20.22 7.7 °C 86 % 5.6 °C 1010.0 hPa 6.1 Km/h ENE 1.0 mm  5.2 °C 9.7 °C
Castana ARPAV (VI) 24/02/24 20.00 5.3 °C 91 % 4.0 °C  hPa 3.2 Km/h SW 1.6 mm  0.1 °C 8.1 °C
Castel d'Azzano (VR) 24/02/24 20.20 9.1 °C 82 % 6.1 °C 1010.6 hPa 0.0 Km/h --- 0.0 mm  2.8 °C 12.9 °C
Castel d'Azzano2 (VR) 24/02/24 20.26 9.3 °C 80 % 6.0 °C 1010.4 hPa 2.3 Km/h NNE 0.2 mm  2.8 °C 13.7 °C
Castelferro (AL) 24/02/24 17.34 7.6 °C 80 % 4.4 °C 1007.6 hPa 14.5 Km/h SSE 0.0 mm  2.8 °C 8.2 °C
Castelfranco Veneto (TV) 24/02/24 09.50 8.8 °C 91 % 7.4 °C 1012.2 hPa 0.0 Km/h NE 0.0 mm  8.8 °C 13.3 °C
Castelfranco Veneto ARPAV (TV) 24/02/24 20.00 7.6 °C 100 % 7.6 °C  hPa 4.0 Km/h NE 0.0 mm  3.2 °C 14.1 °C
Castelnovo Bariano ARPAV (RO) 24/02/24 20.00 10.0 °C 85 % 7.6 °C  hPa 4.3 Km/h SSE 0.2 mm  3.3 °C 13.5 °C
Castelnuovo del Garda ARPAV (VR) 24/02/24 20.00 8.4 °C 83 % 5.7 °C  hPa 4.0 Km/h NNE 0.0 mm  1.2 °C 13.2 °C
Castelnuovo V.C. (PI) 24/02/24 20.28 5.4 °C 86 % 3.3 °C 1009.8 hPa 0.0 Km/h ENE 2.4 mm  2.4 °C 10.1 °C
Castiglione (VR) 24/02/24 20.25 9.6 °C 84 % 7.0 °C 1010.7 hPa 3.6 Km/h N 0.4 mm  3.0 °C 13.1 °C
Castiglione della Pescaia Vaticino (GR) 24/02/24 20.26 9.3 °C 71 % 4.3 °C 1007.2 hPa 2.9 Km/h NW 0.0 mm  4.3 °C 14.6 °C
Cavallino Treporti ARPAV (VE) 24/02/24 20.00 9.0 °C 100 % 9.0 °C 1011.0 hPa 4.3 Km/h SE 0.2 mm  4.3 °C 12.7 °C
Cavaria con Premezzo (VA) 24/02/24 20.25 7.1 °C 85 % 4.8 °C 1009.3 hPa 0.9 Km/h ENE 2.0 mm  3.4 °C 10.6 °C
Cavarzere ARPAV (VE) 24/02/24 20.00 8.7 °C 100 % 8.7 °C  hPa 2.2 Km/h ENE 0.0 mm  2.4 °C 14.8 °C
Cavazzale2 (VI) 24/02/24 20.29 8.9 °C 90 % 7.3 °C 1010.6 hPa 0.0 Km/h ENE 0.0 mm  4.8 °C 12.8 °C
Cefalų (PA) 24/02/24 20.05 12.4 °C 84 % 9.7 °C 1012.2 hPa 0.0 Km/h SE 14.5 mm  10.8 °C 17.1 °C
Cerea (VR) 24/02/24 20.00 10.4 °C 85 % 8.0 °C 1009.2 hPa 6.4 Km/h E 0.3 mm  3.8 °C 14.1 °C
Cerea2 (VR) 24/02/24 20.25 9.7 °C 86 % 7.5 °C 1010.4 hPa 5.0 Km/h E 0.2 mm  3.7 °C 14.7 °C
Chiampo (VI) 24/02/24 20.26 8.3 °C 87 % 6.3 °C 1008.4 hPa 0.0 Km/h WSW 0.2 mm  3.2 °C 12.4 °C
Chieti (CH) 24/02/24 20.25 10.9 °C 76 % 6.9 °C 1011.8 hPa 2.0 Km/h SSW 0.0 mm  10.8 °C 18.4 °C
Chioggia - Sant'Anna ARPAV (VE) 24/02/24 20.00 8.4 °C 100 % 8.4 °C  hPa 4.0 Km/h ESE 0.0 mm  3.1 °C 13.5 °C
Chioggia Centro ARPAV (VE) 24/02/24 20.00 10.3 °C  %  °C  hPa 0.0 Km/h 0.0 mm  6.3 °C 13.8 °C
Cima Pradazzo ARPAV (BL) 24/02/24 20.00 -6.2 °C 96 % -6.7 °C  hPa 5.4 Km/h W 0.0 mm  -7.5 °C -2.7 °C
Cismon del Grappa loc. Corlo (VI) 24/02/24 20.29 5.1 °C 76 % 1.2 °C 1011.8 hPa 0.0 Km/h SSW 0.0 mm  1.6 °C 7.4 °C
Civita Castellana (VT) 24/02/24 20.25 8.6 °C 80 % 5.3 °C 1011.0 hPa 2.9 Km/h S 0.5 mm  5.0 °C 14.0 °C
Codroipo (UD) 24/02/24 20.25 8.2 °C 80 % 5.0 °C 1011.2 hPa 0.8 Km/h ENE 0.0 mm  4.3 °C 14.1 °C
Cogollo del Cengio (VI) 24/02/24 20.27 7.1 °C 82 % 4.2 °C 1008.1 hPa 4.4 Km/h W 0.2 mm  2.6 °C 8.9 °C
Col Dei Baldi ARPAV (BL) 24/02/24 20.00 -4.3 °C 95 % -5.0 °C 1009.9 hPa 3.6 Km/h SE 0.0 mm  -6.5 °C -2.5 °C
Col Indes - Tambre ARPAV (BL) 24/02/24 20.00 1.2 °C 100 % 1.2 °C  hPa 7.6 Km/h ESE 11.4 mm  -0.7 °C 4.7 °C
Colle del Piccolo San Bernardo La Thuile (AO) 24/02/24 20.25 -8.5 °C 91 % -9.7 °C 1011.3 hPa 3.5 Km/h SSE 4.2 mm  -9.1 °C -4.8 °C
Cologna Veneta Sant'Andrea (VR) 24/02/24 20.28 9.4 °C 91 % 8.0 °C 1009.4 hPa 1.6 Km/h ENE 0.2 mm  4.8 °C 13.3 °C
Colognola ai Colli (VR) 24/02/24 19.53 10.3 °C 0 % 0.0 °C 1010.4 hPa 0.0 Km/h W 1000.0 mm  2.9 °C 13.1 °C
Conegliano ARPAV (TV) 24/02/24 20.00 9.3 °C 79 % 5.8 °C  hPa 6.1 Km/h NNE 0.0 mm  6.5 °C 13.8 °C
Conselice (RA) 24/02/24 20.14 8.9 °C 80 % 5.6 °C 1008.9 hPa 2.0 Km/h SSW 0.0 mm  7.5 °C 15.3 °C
Contrā Doppio ARPAV (VI) 24/02/24 20.00 3.6 °C  %  °C  hPa 0.0 Km/h 2.8 mm  0.2 °C 5.2 °C
Contrada Dosso Gervasio (VR) 24/02/24 20.15 1.4 °C 93 % 0.4 °C 1008.3 hPa 0.0 Km/h ENE 0.4 mm  1.4 °C 6.6 °C
Contrada Italiani (VR) 24/02/24 20.14 2.6 °C 91 % 1.2 °C 1015.7 hPa 10.2 Km/h NE 3.0 mm  1.8 °C 7.5 °C
Cornedo Vicentino loc. Muzzolon (VI) 24/02/24 20.14 6.9 °C 93 % 5.8 °C 1002.8 hPa 0.1 Km/h NNW 0.3 mm  3.0 °C 11.6 °C
Cortina d'Ampezzo - Gilardon ARPAV (BL) 24/02/24 20.00 -0.1 °C 100 % -0.1 °C  hPa 3.6 Km/h WNW 4.8 mm  -4.0 °C 2.2 °C
Costa di Vittorio Veneto (TV) 24/02/24 20.24 7.8 °C 86 % 5.7 °C 1009.1 hPa 0.0 Km/h SE 0.3 mm  6.2 °C 13.1 °C
Crespadoro ARPAV (VI) 24/02/24 20.00 6.6 °C 93 % 5.5 °C  hPa 5.0 Km/h WNW 0.0 mm  2.2 °C 10.2 °C
Crespano del Grappa ARPAV (VI) 24/02/24 20.00 5.9 °C 100 % 5.9 °C  hPa 3.6 Km/h NNE 2.8 mm  2.8 °C 10.8 °C
Crosara ARPAV (VI) 24/02/24 19.30 7.6 °C  %  °C  hPa 0.0 Km/h 0.2 mm  3.4 °C 10.9 °C
Dolcé ARPAV (VR) 24/02/24 20.00 7.3 °C 98 % 7.0 °C  hPa 9.0 Km/h NNE 4.4 mm  4.5 °C 10.4 °C
Domegge di Cadore ARPAV (BL) 24/02/24 20.00 1.6 °C 100 % 1.6 °C  hPa 1.4 Km/h NNW 2.2 mm  0.1 °C 6.0 °C
Dorno (PV) 24/02/24 20.29 7.8 °C 84 % 5.2 °C 1010.1 hPa 2.4 Km/h E 0.2 mm  2.8 °C 8.8 °C
Dossobuono (VR) 24/02/24 20.28 8.8 °C 78 % 5.2 °C 1010.3 hPa 6.4 Km/h N 0.4 mm  2.8 °C 12.9 °C
Eraclea ARPAV (VE) 24/02/24 20.00 7.2 °C 100 % 7.2 °C  hPa 3.2 Km/h N 0.0 mm  3.4 °C 13.5 °C
Erbezzo Passo Fittanze (VR) 24/02/24 20.00 -1.1 °C 99 % -1.2 °C 1011.5 hPa 15.4 Km/h SE 0.5 mm  -2.4 °C 0.8 °C
Esine (BS) 24/02/24 20.25 5.7 °C 91 % 4.3 °C 1010.2 hPa 1.4 Km/h NE 4.2 mm  4.3 °C 12.9 °C
Faedo ARPAV (PD) 24/02/24 20.00 8.6 °C 91 % 7.2 °C  hPa 5.0 Km/h NE 0.2 mm  5.1 °C 10.8 °C
Faida di Piné loc. Prada (TN) 24/02/24 20.25 1.1 °C 98 % 0.8 °C 1013.0 hPa 0.0 Km/h E 4.8 mm  -8.6 °C 3.1 °C
Falcade ARPAV (BL) 24/02/24 20.00 0.2 °C 100 % 0.2 °C  hPa 2.2 Km/h SSE 1.6 mm  -4.9 °C 2.5 °C
Faloria ARPAV (BL) 24/02/24 20.00 -6.5 °C 96 % -7.0 °C  hPa 13.3 Km/h SSE 5.2 mm  -7.2 °C -4.2 °C
Falzč di Piave (TV) 24/02/24 20.25 6.0 °C 92 % 4.8 °C 1011.7 hPa 0.0 Km/h --- 2.0 mm  5.1 °C 12.8 °C
Farra D'Alpago Lago Santa Croce (BL) 24/02/24 20.25 5.3 °C 92 % 4.0 °C 1010.5 hPa 2.0 Km/h NE 4.8 mm  4.1 °C 8.6 °C
Faverghera ARPAV (BL) 24/02/24 20.00 -1.8 °C 97 % -2.2 °C  hPa 0.0 Km/h SSE 0.0 mm  -3.1 °C 0.2 °C
Feltre ARPAV (BL) 24/02/24 20.00 6.4 °C 100 % 6.4 °C  hPa 7.6 Km/h SW 2.8 mm  2.4 °C 8.9 °C
Feltre Celarda (BL) 24/02/24 20.29 5.8 °C 95 % 5.1 °C 1011.9 hPa 0.0 Km/h SW 6.2 mm  0.8 °C 8.6 °C
Fener ARPAV (TV) 24/02/24 20.00 7.5 °C  %  °C  hPa 0.0 Km/h 0.4 mm  4.2 °C 11.0 °C
Ferrara di Monte Baldo (VR) 24/02/24 19.54 1.8 °C 87 % -0.1 °C 991.6 hPa 2.6 Km/h NW 1.0 mm  -0.2 °C 5.3 °C
Fiavč loc. Ballino (TN) 24/02/24 20.24 2.4 °C 95 % 1.7 °C 1010.9 hPa 1.9 Km/h NNE 12.0 mm  -0.4 °C 4.3 °C
Filo di Argenta (FE) 24/02/24 20.25 8.7 °C 80 % 5.5 °C 1010.8 hPa 0.0 Km/h N 0.3 mm  7.4 °C 14.7 °C
Fogliano Redipuglia (GO) 24/02/24 20.25 8.9 °C 84 % 6.3 °C 1010.8 hPa 0.0 Km/h SE 0.0 mm  8.4 °C 14.3 °C
Foligno (PG) 24/02/24 20.20 10.1 °C 70 % 4.9 °C 1011.7 hPa 1.6 Km/h SSE 0.0 mm  6.1 °C 14.7 °C
Follina ARPAV (TV) 24/02/24 20.00 8.3 °C 88 % 6.4 °C  hPa 2.5 Km/h WSW 4.0 mm  3.7 °C 13.9 °C
Fontanafredda (PN) 24/02/24 20.29 7.2 °C 87 % 5.1 °C 1010.6 hPa 5.4 Km/h ENE 0.0 mm  5.1 °C 13.8 °C
Fonte (TV) 24/02/24 20.25 8.1 °C 88 % 6.2 °C 1010.7 hPa 0.0 Km/h ENE 1.6 mm  4.1 °C 13.9 °C
Forno di Zoldo - Campo ARPAV (BL) 24/02/24 20.00 1.0 °C 100 % 1.0 °C  hPa 5.4 Km/h NNE 2.2 mm  0.1 °C 5.0 °C
Fortogna ARPAV (BL) 24/02/24 20.00 5.1 °C  %  °C  hPa 0.0 Km/h 5.2 mm  2.5 °C 7.9 °C
Fossalta di Portogruaro ARPAV (VE) 24/02/24 20.00 8.7 °C 93 % 7.6 °C  hPa 5.0 Km/h E 0.0 mm  4.6 °C 13.5 °C
Fregona Malga Picotera (TV) 24/02/24 20.25 1.9 °C 86 % -0.2 °C 1011.2 hPa 0.0 Km/h N 0.8 mm  0.0 °C 5.8 °C
Fregona Osservatorio Astronomico Piadera (TV) 24/02/24 20.14 6.5 °C 85 % 4.1 °C 1011.9 hPa 0.2 Km/h NE 0.3 mm  5.9 °C 10.8 °C
Fumane Contrada La Ca (VR) 24/02/24 20.00 4.7 °C 86 % 2.2 °C 1010.1 hPa 3.2 Km/h NNW 3.8 mm  4.2 °C 10.0 °C
Gaggiano (MI) 24/02/24 20.25 8.6 °C 81 % 5.5 °C 1009.2 hPa 3.9 Km/h E 0.2 mm  4.7 °C 11.4 °C
Gaiarine ARPAV (TV) 24/02/24 20.00 8.3 °C 79 % 4.9 °C  hPa 0.0 Km/h 0.4 mm  6.2 °C 13.8 °C
Galzignano Terme ARPAV (PD) 24/02/24 20.00 6.2 °C 100 % 6.2 °C  hPa 2.9 Km/h W 0.2 mm  1.9 °C 13.6 °C
Gambellara (VI) 24/02/24 20.25 10.1 °C 82 % 7.2 °C 1010.7 hPa 3.2 Km/h NE 0.2 mm  4.1 °C 13.4 °C
Gardolo (TN) 24/02/24 20.24 6.0 °C 92 % 4.8 °C 1010.2 hPa 0.0 Km/h ENE 4.6 mm  2.0 °C 9.6 °C
Genova Erzelli (GE) 24/02/24 20.29 9.9 °C 79 % 6.4 °C 1009.1 hPa 1.6 Km/h N 0.6 mm  8.2 °C 12.9 °C
Genova Oregina (GE) 24/02/24 20.29 7.8 °C 84 % 5.3 °C 1012.5 hPa 4.8 Km/h N 0.6 mm  6.7 °C 11.5 °C
Goito (MN) 24/02/24 20.25 9.2 °C 88 % 7.3 °C 1009.6 hPa 0.0 Km/h NE 0.2 mm  1.6 °C 13.6 °C
Gradisca d'Isonzo (GO) 24/02/24 20.25 7.6 °C 84 % 5.1 °C 1006.9 hPa 0.0 Km/h NE 0.0 mm  -9.0 °C 13.8 °C
Grantorto ARPAV (PD) 24/02/24 20.00 8.5 °C 90 % 7.0 °C  hPa 5.4 Km/h NE 0.2 mm  2.7 °C 13.2 °C
Guā a Ponte Guā ARPAV (VI) 24/02/24 20.00 9.0 °C  %  °C  hPa 5.8 Km/h NW 0.0 mm  3.9 °C 12.3 °C
Iglesias (CI) 24/02/24 19.58 8.1 °C 96 % 7.5 °C 1010.9 hPa 1.4 Km/h NE 15.8 mm  7.1 °C 11.2 °C
Illasi ARPAV (VR) 24/02/24 20.00 10.3 °C 81 % 7.2 °C  hPa 6.8 Km/h ENE 0.2 mm  3.9 °C 13.7 °C
Isera loc. Reviano (TN) 24/02/24 20.29 5.9 °C 89 % 4.2 °C 1005.7 hPa 0.0 Km/h SW 1.6 mm  2.2 °C 7.7 °C
Isola d'Elba Marina di Campo (LI) 24/02/24 20.00 9.3 °C 79 % 5.9 °C 1010.8 hPa 0.0 Km/h N 0.0 mm  4.1 °C 15.6 °C
Isola della Scala (VR) 24/02/24 20.00 7.8 °C 87 % 5.8 °C 997.3 hPa 0.0 Km/h NE 0.2 mm  1.4 °C 11.8 °C
Isola Vicentina ARPAV (VI) 24/02/24 20.00 8.1 °C  %  °C  hPa 0.0 Km/h 0.2 mm  4.0 °C 12.9 °C
Jesolo - Cortellazzo ARPAV (VE) 24/02/24 20.00 8.9 °C 89 % 7.2 °C  hPa 5.4 Km/h ESE 0.0 mm  4.1 °C 13.2 °C
La Guarda ARPAV (BL) 24/02/24 20.00 3.3 °C  %  °C  hPa 0.0 Km/h 0.0 mm  0.2 °C 6.2 °C
Lattarico (CS) 24/02/24 20.25 11.8 °C 86 % 9.5 °C 1013.5 hPa 7.9 Km/h SE 21.6 mm  9.3 °C 15.3 °C
Lavis (TN) 24/02/24 20.29 5.7 °C 92 % 4.5 °C 1010.7 hPa 6.4 Km/h NNW 5.0 mm  2.1 °C 8.9 °C
Legnago (VR) 24/02/24 20.24 9.3 °C 89 % 7.8 °C 1009.7 hPa 0.0 Km/h ESE 0.2 mm  4.0 °C 13.6 °C
Legnago Aeroporto (VR) 24/02/24 20.25 9.6 °C 91 % 8.2 °C 1009.4 hPa 4.8 Km/h ESE 0.0 mm  3.9 °C 13.6 °C
Legnaro ARPAV (PD) 24/02/24 20.00 8.5 °C 90 % 7.0 °C  hPa 6.8 Km/h NE 0.0 mm  4.2 °C 14.0 °C
Lesmo (MB) 24/02/24 20.25 7.0 °C 86 % 4.8 °C 1009.6 hPa 1.6 Km/h ENE 3.5 mm  1.7 °C 11.2 °C
Loano (SV) 24/02/24 20.20 9.6 °C 78 % 6.0 °C 0.0 hPa 12.9 Km/h N 20.8 mm  8.6 °C 13.0 °C
Lonigo (VI) 24/02/24 20.28 9.4 °C 80 % 6.1 °C 1009.8 hPa 6.5 Km/h NNE 0.2 mm  3.0 °C 13.6 °C
Lonigo ARPAV (VI) 24/02/24 20.00 9.8 °C 88 % 7.9 °C  hPa 4.7 Km/h NNE 0.2 mm  6.0 °C 13.1 °C
Lugagnano (VR) 24/02/24 20.25 7.9 °C 84 % 5.4 °C 1009.3 hPa 1.6 Km/h NNE 0.0 mm  3.2 °C 12.9 °C
Lugugnana ARPAV (VE) 24/02/24 20.00 7.8 °C 99 % 7.7 °C  hPa 6.1 Km/h NE 0.0 mm  4.0 °C 14.0 °C
Lusiana Sciessere (VI) 24/02/24 20.25 4.5 °C 87 % 2.5 °C 1010.8 hPa 7.9 Km/h NNE 0.8 mm  1.9 °C 7.8 °C
Malcesine (VR) 24/02/24 20.25 9.0 °C 84 % 6.7 °C 1003.9 hPa 0.0 Km/h NE 0.0 mm  7.0 °C 11.3 °C
Malcesine Navene (VR) 24/02/24 20.26 7.8 °C 85 % 5.5 °C 1011.8 hPa 5.6 Km/h ESE 2.0 mm  5.7 °C 10.5 °C
Malga Ciapela ARPAV (BL) 24/02/24 20.00 -1.5 °C  %  °C  hPa 0.0 Km/h 3.0 mm  -8.2 °C 2.8 °C
Malga Dossioli (TN) 24/02/24 20.25 -1.6 °C 94 % -2.4 °C 847.1 hPa 6.8 Km/h N 0.0 mm  -3.4 °C -0.3 °C
Malga Larici ARPAV (VI) 24/02/24 20.00 -2.0 °C 96 % -2.6 °C  hPa 0.0 Km/h NNW 0.0 mm  -4.2 °C 2.1 °C
Malga Losch ARPAV (BL) 24/02/24 20.00 -3.2 °C 93 % -4.2 °C  hPa 0.7 Km/h ENE 0.0 mm  -4.3 °C 0.3 °C
Malga Malera (VR) 24/02/24 20.37 -2.1 °C  %  °C  hPa 0.0 Km/h 0.0 mm  -7.4 °C 0.0 °C
Malga Nardis (TN) 24/02/24 17.57 -3.5 °C 99 % -3.6 °C 1009.2 hPa 0.0 Km/h E 0.0 mm  -5.2 °C -0.4 °C
Malnate San Salvatore (VA) 24/02/24 20.20 5.1 °C 93 % 4.1 °C 1009.8 hPa 0.0 Km/h --- 7.0 mm  2.3 °C 9.9 °C
Malo ARPAV (VI) 24/02/24 20.00 8.3 °C 84 % 5.8 °C 1010.6 hPa 5.8 Km/h S 0.0 mm  3.6 °C 13.5 °C
Marano di Valpolicella (VR) 24/02/24 20.25 6.8 °C 81 % 3.8 °C 977.7 hPa 8.0 Km/h SE 5.8 mm  4.8 °C 11.9 °C
Marano di Valpolicella ARPAV (VR) 24/02/24 20.00 5.9 °C 100 % 5.9 °C  hPa 6.5 Km/h N 6.0 mm  4.3 °C 13.2 °C
Marcellise (VR) 24/02/24 20.25 8.5 °C 81 % 5.4 °C 1010.5 hPa 12.2 Km/h ENE 0.0 mm  5.3 °C 11.1 °C
Margone (TN) 24/02/24 20.25 1.9 °C 92 % 0.7 °C 1012.1 hPa 0.0 Km/h NNE 7.0 mm  -0.8 °C 3.8 °C
Marineo (PA) 24/02/24 20.28 9.6 °C 90 % 8.0 °C 1011.7 hPa 0.0 Km/h N 8.6 mm  8.5 °C 14.6 °C
Marmolada - Punta Rocca ARPAV (BL) 24/02/24 20.00 -13.5 °C  %  °C  hPa 0.0 Km/h SSW 0.0 mm  -15.4 °C -7.3 °C
Marostica Valle San Floriano (VI) 24/02/24 20.25 8.3 °C 90 % 6.8 °C 1011.3 hPa 0.0 Km/h E 0.4 mm  3.6 °C 13.2 °C
Marta (VT) 24/02/24 20.24 7.9 °C 81 % 4.8 °C 1012.3 hPa 4.7 Km/h S 1.2 mm  5.3 °C 12.6 °C
Martignano (TN) 24/02/24 20.29 5.0 °C 95 % 4.3 °C 1009.8 hPa 0.0 Km/h WNW 2.2 mm  1.1 °C 7.2 °C
Marzana (VR) 24/02/24 20.25 7.2 °C 78 % 3.3 °C 1010.0 hPa 8.0 Km/h NNW 2.0 mm  4.3 °C 13.3 °C
Maso Covel (TN) 24/02/24 20.26 3.5 °C 95 % 2.8 °C 921.0 hPa 0.7 Km/h ESE 3.4 mm  -0.2 °C 5.2 °C
Massone di Arco (TN) 24/02/24 20.25 6.6 °C 98 % 6.3 °C 1011.1 hPa 3.8 Km/h NW 2.1 mm  2.3 °C 10.1 °C
Merlara (PD) 24/02/24 20.20 8.6 °C 90 % 7.1 °C 1008.9 hPa 3.2 Km/h SE 0.3 mm  4.1 °C 12.6 °C
Miglionico (MT) 24/02/24 20.20 9.9 °C 91 % 8.5 °C 1010.0 hPa 9.7 Km/h SSW 3.2 mm  9.9 °C 12.9 °C
Minerbe (VR) 24/02/24 20.26 9.2 °C 91 % 7.8 °C 1010.2 hPa 7.2 Km/h ENE 0.2 mm  4.3 °C 12.7 °C
Miola di Piné loc. Costalta (TN) 24/02/24 20.26 0.0 °C 0 % 0.0 °C 0.0 hPa 0.0 Km/h N 0.0 mm  -1.1 °C -1.1 °C
Mira ARPAV (VE) 24/02/24 20.00 7.7 °C 100 % 7.7 °C  hPa 0.0 Km/h 0.0 mm  3.1 °C 13.4 °C
Misurina ARPAV (BL) 24/02/24 20.00 -3.1 °C 100 % -3.1 °C  hPa 7.6 Km/h S 5.4 mm  -8.7 °C -0.8 °C
Mogliano Veneto ARPAV (TV) 24/02/24 20.00 7.7 °C 100 % 7.7 °C  hPa 6.8 Km/h NNE 0.2 mm  3.7 °C 13.6 °C
Molini ARPAV (VI) 24/02/24 20.00 4.3 °C 96 % 3.7 °C  hPa 0.0 Km/h 2.0 mm  0.5 °C 6.3 °C
Moneglia loc. Casale (GE) 24/02/24 20.26 8.9 °C 90 % 7.3 °C 1010.7 hPa 0.0 Km/h S 2.2 mm  8.2 °C 14.1 °C
Moneglia loc. La Secca (GE) 24/02/24 20.25 10.3 °C 76 % 6.3 °C 1009.1 hPa 1.6 Km/h WSW 1.3 mm  9.4 °C 13.9 °C
Mongrando San Michele (BI) 24/02/24 11.35 7.0 °C 65 % 0.9 °C 1007.4 hPa 3.2 Km/h SE 0.2 mm  3.2 °C 7.0 °C
Montagna in Valtellina (SO) 24/02/24 20.29 4.0 °C 94 % 3.1 °C 1011.4 hPa 0.7 Km/h ENE 7.3 mm  2.4 °C 6.8 °C
Monte Baldo Nord ARPAV (VR) 24/02/24 20.00 -3.1 °C 95 % -3.8 °C 1011.2 hPa 0.0 Km/h SSE 0.0 mm  -4.0 °C -0.8 °C
Monte Cesen ARPAV (TV) 24/02/24 20.00 -1.3 °C 100 % -1.3 °C  hPa 28.4 Km/h SE 0.0 mm  -3.1 °C -0.7 °C
Monte Cherz ARPAV (BL) 24/02/24 20.00 -4.9 °C 97 % -5.3 °C  hPa 0.0 Km/h ENE 0.0 mm  -9.0 °C -2.6 °C
Monte Grande ARPAV (PD) 24/02/24 20.00 7.5 °C  %  °C  hPa 0.0 Km/h 0.0 mm  4.5 °C 9.6 °C
Monte Lisser ARPAV (VI) 24/02/24 20.00 -1.3 °C 96 % -1.9 °C 1010.6 hPa 3.2 Km/h NNE 0.0 mm  -3.2 °C 0.1 °C
Monte Piana ARPAV (BL) 24/02/24 20.00 -6.8 °C 96 % -7.3 °C  hPa 5.8 Km/h S 0.0 mm  -8.8 °C 0.0 °C
Monte Rufeno (VT) 23/02/24 16.59 9.9 °C 95 % 9.1 °C 995.5 hPa 11.2 Km/h NNW 62.7 mm  7.5 °C 10.2 °C
Monte Summano ARPAV (VI) 24/02/24 20.00 6.1 °C 89 % 4.4 °C  hPa 0.0 Km/h 0.0 mm  2.7 °C 10.3 °C
Monte Tomba ARPAV (VR) 24/02/24 20.00 -2.5 °C 97 % -2.9 °C  hPa 0.0 Km/h SE 0.0 mm  -2.8 °C -0.8 °C
Montebelluna Loc. Contea ARPAV (TV) 24/02/24 20.00 8.0 °C  %  °C  hPa 0.0 Km/h 0.2 mm  5.1 °C 13.0 °C
Montecchio Maggiore Sant'Urbano (VI) 24/02/24 20.14 8.8 °C 79 % 5.3 °C 1007.6 hPa 10.2 Km/h NE 7.7 mm  6.9 °C 23.1 °C
Montecchio Precalcino ARPAV (VI) 24/02/24 20.00 8.6 °C 86 % 6.4 °C  hPa 3.2 Km/h ESE 0.2 mm  3.2 °C 13.5 °C
Montegalda ARPAV (VI) 24/02/24 20.00 9.1 °C 100 % 9.1 °C  hPa 4.7 Km/h N 0.2 mm  5.2 °C 13.1 °C
Monti Alti di Ornella ARPAV (BL) 24/02/24 20.00 -6.3 °C 96 % -6.8 °C  hPa 14.0 Km/h SSE 0.0 mm  -8.5 °C -3.7 °C
Montorio (VR) 24/02/24 20.14 9.9 °C 78 % 6.2 °C 1011.5 hPa 7.2 Km/h NNW 0.3 mm  1.7 °C 13.5 °C
Montorso Vicentino (VI) 24/02/24 20.29 7.6 °C 86 % 5.4 °C 1010.1 hPa 0.0 Km/h N 0.2 mm  4.1 °C 10.6 °C
Morbegno (SO) 24/02/24 20.29 4.7 °C 91 % 3.3 °C 1043.2 hPa 1.6 Km/h SW 9.7 mm  3.1 °C 7.8 °C
Musigliano (PI) 24/02/24 20.24 10.0 °C 76 % 6.0 °C 1010.3 hPa 6.0 Km/h 2.7 mm  10.0 °C 16.5 °C
Nervesa Della Battaglia ARPAV (TV) 24/02/24 20.00 7.5 °C  %  °C  hPa 0.0 Km/h 0.4 mm  4.9 °C 13.5 °C
Nichelino (TO) 24/02/24 19.15 7.0 °C 90 % 5.5 °C 1011.4 hPa 0.0 Km/h SE 0.0 mm  3.7 °C 10.4 °C
Noventa di Piave - Grassaga ARPAV (VE) 24/02/24 20.00 7.5 °C 100 % 7.5 °C  hPa 4.7 Km/h NNE 0.2 mm  4.2 °C 14.4 °C
Novezzina (VR) 24/02/24 20.20 0.3 °C 94 % -0.6 °C 1009.2 hPa 3.2 Km/h NNE 1.0 mm  -1.1 °C 2.8 °C
Oppeano (VR) 21/02/24 15.40 15.9 °C 53 % 6.3 °C 1018.0 hPa 0.0 Km/h ESE 0.0 mm  4.4 °C 16.9 °C
Oppeano2 (VR) 24/02/24 20.25 9.3 °C 85 % 6.9 °C 1010.2 hPa 0.0 Km/h N 0.2 mm  4.6 °C 15.7 °C
Oristano (OR) 24/02/24 20.29 8.8 °C 92 % 7.5 °C 1009.1 hPa 5.2 Km/h N 10.4 mm  5.8 °C 15.6 °C
Ortonovo (SP) 24/02/24 20.26 8.4 °C 73 % 3.8 °C 1026.7 hPa 13.0 Km/h SSE 0.3 mm  7.1 °C 13.5 °C
Orvieto (TR) 24/02/24 20.20 7.3 °C 81 % 4.3 °C 1008.8 hPa 0.0 Km/h SE 0.0 mm  1.9 °C 13.8 °C
Ospedaletto Euganeo ARPAV (PD) 24/02/24 20.00 10.4 °C 87 % 8.3 °C  hPa 8.3 Km/h E 0.2 mm  4.9 °C 14.4 °C
Ovaro loc. Liariis (UD) 24/02/24 20.00 1.6 °C 93 % 0.5 °C 1014.1 hPa 0.0 Km/h WSW 46.6 mm  0.9 °C 5.6 °C
Pace del Mela (ME) 24/02/24 20.25 12.4 °C 96 % 11.8 °C 1010.6 hPa 0.5 Km/h SSE 4.2 mm  11.1 °C 19.2 °C
Padergnone (TN) 24/02/24 20.25 6.7 °C 92 % 5.5 °C 1010.6 hPa 0.0 Km/h N 1.6 mm  4.2 °C 9.7 °C
Palų di Zevio (VR) 24/02/24 20.24 9.6 °C 89 % 7.9 °C 1010.8 hPa 4.0 Km/h ESE 0.4 mm  5.0 °C 13.6 °C
Parella (TO) 24/02/24 20.24 6.4 °C 88 % 4.6 °C 1010.3 hPa 0.0 Km/h NNW 0.4 mm  4.9 °C 9.7 °C
Passo Campogrosso ARPAV (VI) 24/02/24 20.00 -1.1 °C 96 % -1.7 °C  hPa 11.2 Km/h ESE 0.0 mm  -2.6 °C -0.2 °C
Passo Falzarego ARPAV (BL) 24/02/24 20.00 -4.7 °C 96 % -5.2 °C 1009.6 hPa 0.7 Km/h SE 3.2 mm  -8.3 °C -1.5 °C
Passo Monte Croce Comelico ARPAV (BL) 24/02/24 20.00 -2.3 °C 99 % -2.4 °C  hPa 6.1 Km/h SE 6.8 mm  -5.1 °C -0.2 °C
Passo Santa Caterina ARPAV (VI) 24/02/24 20.00 4.3 °C 88 % 2.5 °C  hPa 3.2 Km/h ENE 0.0 mm  1.8 °C 7.0 °C
Passo Xomo ARPAV (VI) 24/02/24 20.00 1.7 °C 92 % 0.5 °C  hPa 4.0 Km/h WSW 3.2 mm  -0.2 °C 2.8 °C
Pastrengo Corné (VR) 24/02/24 20.28 7.4 °C 88 % 5.5 °C 1008.4 hPa 0.0 Km/h E 0.6 mm  3.3 °C 12.7 °C
Pecetto Torinese (TO) 24/02/24 20.25 5.0 °C 91 % 3.7 °C 1008.8 hPa 0.0 Km/h ENE 0.0 mm  4.2 °C 9.8 °C
Pedara (CT) 24/02/24 20.25 10.6 °C 76 % 6.5 °C 1009.2 hPa 0.0 Km/h --- 1.1 mm  9.6 °C 16.9 °C
Pedemonte (VR) 24/02/24 20.25 7.1 °C 88 % 5.2 °C 1009.5 hPa 10.0 Km/h NE 7.2 mm  3.1 °C 14.0 °C
Perarolo ARPAV (BL) 24/02/24 20.00 2.1 °C 100 % 2.1 °C  hPa 1.8 Km/h NNE 2.6 mm  0.3 °C 6.2 °C
Perugia San Mariano (PG) 24/02/24 20.26 8.2 °C 71 % 3.3 °C 1012.0 hPa 0.5 Km/h --- 0.6 mm  4.1 °C 12.5 °C
Pescantina (VR) 24/02/24 20.25 7.7 °C 78 % 4.1 °C 1010.4 hPa 5.3 Km/h NE 0.6 mm  2.3 °C 13.4 °C
Peschiera del Garda (VR) 24/02/24 20.25 8.9 °C 84 % 6.1 °C 1010.0 hPa 6.5 Km/h NE 0.0 mm  3.4 °C 12.7 °C
Peschiera del Garda ARPAV (VR) 24/02/24 20.00 9.2 °C 83 % 6.5 °C  hPa 5.8 Km/h WNW 0.0 mm  2.6 °C 12.8 °C
Pian Cansiglio Agriturismo Le Code (BL) 24/02/24 20.14 1.6 °C 97 % 1.2 °C 0.0 hPa 0.0 Km/h - 1.5 mm  -1.9 °C 5.4 °C
Pian Cansiglio Loc. Casera Le Rotte (TV) 24/02/24 20.25 1.7 °C 95 % 1.0 °C 1010.1 hPa 4.7 Km/h WSW 1.8 mm  -1.7 °C 4.7 °C
Pian Cansiglio Loc. I Bech - Le Code (BL) 24/02/24 20.18 1.7 °C 100 % 1.7 °C 0.0 hPa 0.0 Km/h - 0.0 mm  -1.0 °C 5.1 °C
Pian Cansiglio Loc. Valmenera (BL) 24/02/24 20.16 0.4 °C 98 % 0.2 °C 0.0 hPa 0.0 Km/h - 0.0 mm  -0.6 °C 5.4 °C
Pian Cansiglio Malga Col dei S'cios (PN) 23/02/24 22.55 0.7 °C 99 % 0.5 °C 0.0 hPa 0.0 Km/h - 111.8 mm  0.1 °C 2.8 °C
Pian Cansiglio Malga Filippon (BL) 24/02/24 20.21 1.1 °C 100 % 1.1 °C 0.0 hPa 0.0 Km/h - 2.4 mm  -1.6 °C 4.3 °C
Pian Cansiglio Rifugio Carlo e Massimo Semenza - CAI (BL) 24/02/24 20.19 -4.8 °C 99 % -4.9 °C 0.0 hPa 0.0 Km/h - 0.0 mm  -6.7 °C -1.2 °C
Piana di Marcesina - Rendole ARPAV (VI) 24/02/24 20.00 -0.5 °C 100 % -0.5 °C  hPa 7.2 Km/h ESE 2.0 mm  -11.0 °C 1.9 °C
Piovā Massaia (AT) 24/02/24 20.28 5.6 °C 93 % 4.6 °C 1010.8 hPa 0.0 Km/h ENE 0.0 mm  5.0 °C 8.1 °C
Piraino contr. Fiumara (ME) 24/02/24 20.20 12.8 °C 94 % 11.9 °C 1012.5 hPa 0.0 Km/h NE 3.0 mm  11.7 °C 15.4 °C
Pisa zona I Passi (PI) 24/02/24 20.29 9.6 °C 82 % 6.6 °C 1009.6 hPa 19.3 Km/h E 1.0 mm  9.3 °C 14.6 °C
Pocenia (UD) 24/02/24 20.26 5.7 °C 95 % 5.0 °C 1009.7 hPa 0.0 Km/h SSE 0.0 mm  3.7 °C 14.4 °C
Pojana Maggiore Cagnano (VI) 24/02/24 20.24 9.1 °C 92 % 7.9 °C 1008.4 hPa 6.5 Km/h N 0.2 mm  5.1 °C 13.3 °C
Pomezia (RM) 24/02/24 20.29 9.1 °C 83 % 6.3 °C 1010.3 hPa 8.0 Km/h SE 0.2 mm  8.1 °C 14.6 °C
Ponte di Piave ARPAV (TV) 24/02/24 20.00 7.4 °C 100 % 7.4 °C  hPa 5.8 Km/h NE 0.4 mm  3.3 °C 13.6 °C
Ponte San Nicolō (PD) 24/02/24 20.25 0.0 °C 0 % 0.0 °C 0.0 hPa 0.0 Km/h 0.0 mm  0.0 °C 0.0 °C
Ponte San Pellegrino (MO) 24/02/24 20.28 8.7 °C 91 % 7.3 °C 1010.7 hPa 6.0 Km/h NW 0.3 mm  2.4 °C 14.2 °C
Pontedassio fraz. Bestagno (IM) 23/02/24 04.30 11.8 °C 97 % 11.3 °C 0.0 hPa 6.4 Km/h SSE 3.4 mm  11.4 °C 11.9 °C
Pordenone (PN) 24/02/24 20.10 8.4 °C 80 % 5.2 °C 1010.6 hPa 0.0 Km/h NE 0.2 mm  6.3 °C 14.4 °C
Porto Tolle - Pradon ARPAV (RO) 24/02/24 20.00 8.5 °C 97 % 8.1 °C 1009.9 hPa 12.2 Km/h S 0.0 mm  5.7 °C 14.8 °C
Portogruaro - Lison ARPAV (VE) 24/02/24 20.00 7.3 °C 99 % 7.2 °C  hPa 6.1 Km/h NNE 0.0 mm  3.8 °C 13.2 °C
Posina loc. Contrā Boni (VI) 24/02/24 20.25 2.7 °C 95 % 2.0 °C 1013.0 hPa 1.4 Km/h NE 4.2 mm  0.3 °C 5.9 °C
Pozzolo Formigaro (AL) 24/02/24 20.28 5.8 °C 89 % 4.1 °C 1010.2 hPa 2.2 Km/h SE 0.0 mm  1.8 °C 8.9 °C
Pozzonovo (PD) 24/02/24 20.24 8.3 °C 1 % -45.2 °C 1009.4 hPa 0.0 Km/h NNE 0.2 mm  3.8 °C 15.2 °C
Predazzo (TN) 19/02/24 19.48 6.6 °C 66 % -0.1 °C 1028.9 hPa 3.7 Km/h E 0.0 mm  2.6 °C 12.8 °C
Quarrata Loc. Caserana (PT) 24/02/24 20.25 7.7 °C 98 % 7.2 °C 1010.8 hPa 0.0 Km/h SW 4.8 mm  6.3 °C 13.4 °C
Ra Valles ARPAV (BL) 24/02/24 20.00 -8.9 °C 95 % -9.6 °C  hPa 0.0 Km/h SE 0.0 mm  -10.7 °C -6.0 °C
Recoaro Mille ARPAV (VI) 24/02/24 20.00 1.9 °C 95 % 1.2 °C  hPa 2.9 Km/h W 2.8 mm  0.4 °C 3.4 °C
Reggello (FI) 24/02/24 20.26 7.2 °C 85 % 4.9 °C 1014.2 hPa 0.0 Km/h E 1.8 mm  6.3 °C 11.7 °C
Riccione (RN) 24/02/24 20.23 7.9 °C 82 % 5.1 °C 1010.6 hPa 4.8 Km/h SSE 0.3 mm  7.2 °C 14.7 °C
Rifugio Altissimo Damiano Chiesa (TN) 24/02/24 17.55 -4.9 °C 92 % -6.0 °C 782.7 hPa 0.0 Km/h S 0.0 mm  -6.9 °C -2.1 °C
Rifugio Castelberto (VR) 23/02/24 22.09 -0.2 °C 75 % -4.1 °C 998.2 hPa 0.0 Km/h SSW 0.0 mm  -1.8 °C -0.1 °C
Rifugio Citta di Fiume (BL) 24/02/24 20.28 -3.8 °C 93 % -4.8 °C 1011.1 hPa 1.6 Km/h WNW 0.6 mm  -5.4 °C -0.6 °C
Rifugio Cittā di Vittorio Veneto (TV) 24/02/24 20.13 -1.6 °C 100 % -1.6 °C 0.0 hPa 0.0 Km/h - 0.0 mm  -3.1 °C 0.5 °C
Rifugio Dolomieu al Dolada (BL) 24/02/24 20.14 -1.3 °C 100 % -1.3 °C 0.0 hPa 0.0 Km/h - 0.4 mm  -3.4 °C 1.8 °C
Rifugio la Guardia ARPAV (VI) 24/02/24 20.00 1.6 °C 91 % 0.3 °C  hPa 5.8 Km/h ENE 3.4 mm  0.1 °C 2.8 °C
Rifugio Marchetti (TN) 23/02/24 17.34 -1.9 °C 98 % -2.2 °C 996.9 hPa 0.0 Km/h N 0.0 mm  -3.1 °C -1.4 °C
Rifugio Primaneve (VR) 24/02/24 20.25 -2.8 °C 96 % -3.4 °C 1011.3 hPa 0.0 Km/h S 0.0 mm  -3.3 °C -1.1 °C
Rifugio Telegrafo (VR) 22/02/24 01.20 -3.4 °C 92 % -4.6 °C 779.6 hPa 0.0 Km/h WSW 0.0 mm  -3.4 °C -3.2 °C
Rimini (RN) 24/02/24 20.20 8.9 °C 82 % 6.0 °C 1011.5 hPa 3.2 Km/h SSE 1.0 mm  8.8 °C 15.0 °C
Rivalta sul Mincio (MN) 24/02/24 19.15 9.1 °C 87 % 7.1 °C 1009.9 hPa 3.9 Km/h NNW 0.0 mm  1.0 °C 12.9 °C
Rocca Priora (RM) 24/02/24 20.20 5.4 °C 89 % 3.8 °C 1013.3 hPa 16.1 Km/h NNW 1.0 mm  4.8 °C 10.1 °C
Roncā (VR) 24/02/24 20.24 9.8 °C 81 % 6.8 °C 981.5 hPa 0.0 Km/h NNE 0.0 mm  3.5 °C 14.2 °C
Ronciglione Centro (VT) 24/02/24 20.29 7.2 °C 82 % 4.4 °C 1012.4 hPa 2.6 Km/h SSW 0.4 mm  5.4 °C 12.2 °C
Ronciglione Poggio Cavaliere (VT) 24/02/24 20.25 5.6 °C 87 % 3.6 °C 1014.8 hPa 2.2 Km/h SSE 0.0 mm  4.8 °C 11.6 °C
Rosā ARPAV (VI) 24/02/24 20.00 8.6 °C 81 % 5.5 °C  hPa 2.9 Km/h N 0.0 mm  4.5 °C 14.7 °C
Rosolina - Po di Tramontana ARPAV (RO) 24/02/24 20.00 8.5 °C 100 % 8.5 °C  hPa 1.4 Km/h ESE 0.0 mm  4.8 °C 14.9 °C
Rossano Veneto (VI) 24/02/24 20.24 8.8 °C 84 % 6.1 °C 1011.7 hPa 1.6 Km/h ENE 0.4 mm  4.3 °C 13.6 °C
Roverchiara ARPAV (VR) 24/02/24 20.00 9.5 °C 92 % 8.3 °C  hPa 6.8 Km/h ENE 0.0 mm  4.2 °C 13.8 °C
S. Giovanni Ilarione (VR) 24/02/24 20.19 9.0 °C 82 % 6.1 °C 1023.4 hPa 4.6 Km/h N 0.0 mm  3.3 °C 13.1 °C
S. Giovanni Ilarione2 (VR) 24/02/24 20.25 8.9 °C 86 % 6.7 °C 1009.5 hPa 0.0 Km/h --- 0.2 mm  3.2 °C 12.8 °C
S. Giovanni Lupatoto (VR) 24/02/24 20.26 10.3 °C 83 % 7.6 °C 1010.6 hPa 0.0 Km/h E 0.2 mm  5.1 °C 14.4 °C
S. Giovanni Rotondo (FG) 24/02/24 20.29 8.2 °C 86 % 6.0 °C 1012.2 hPa 0.0 Km/h ENE 5.4 mm  7.1 °C 11.2 °C
S. Lorenzo di Vittorio Veneto (TV) 24/02/24 20.24 8.5 °C 79 % 5.1 °C 1009.8 hPa 0.0 Km/h NNE 0.8 mm  6.1 °C 11.0 °C
S. Lorenzo Nuovo (VT) 24/02/24 20.26 7.2 °C 83 % 4.5 °C 1013.0 hPa 4.7 Km/h SE 0.0 mm  4.9 °C 10.8 °C
S. Maria di Zevio Loc. 3 Ponti (VR) 24/02/24 20.25 9.4 °C 88 % 7.5 °C 1011.5 hPa 0.0 Km/h N 0.3 mm  4.4 °C 12.8 °C
S. Maria Maddalena (RO) 24/02/24 20.26 9.4 °C 79 % 6.0 °C 1009.0 hPa 3.1 Km/h SW 0.2 mm  3.0 °C 14.9 °C
S. Martino Lupari (PD) 24/02/24 20.10 8.8 °C 91 % 7.4 °C 1010.9 hPa 0.0 Km/h --- 0.2 mm  4.3 °C 14.0 °C
S. Mauro di Saline (VR) 24/02/24 05.59 1.4 °C 93 % 0.4 °C 1006.6 hPa 3.2 Km/h ENE 0.0 mm  1.4 °C 3.8 °C
S. Rocco di Villabalzana (VI) 24/02/24 20.27 8.0 °C 87 % 6.1 °C 1009.4 hPa 3.2 Km/h ENE 0.2 mm  4.8 °C 11.4 °C
S. Zeno di Mont. Prada (VR) 24/02/24 20.10 1.7 °C 92 % 0.6 °C 1014.2 hPa 0.0 Km/h S 1.5 mm  0.3 °C 6.2 °C
S. Zeno di Mont. 2 (VR) 24/02/24 20.26 5.4 °C 81 % 2.4 °C 1005.1 hPa 4.4 Km/h ENE 1.2 mm  3.9 °C 8.2 °C
Sacile (PN) 24/02/24 20.18 9.0 °C 80 % 5.7 °C 1011.0 hPa 0.0 Km/h --- 0.2 mm  6.8 °C 13.6 °C
Sacile2 (PN) 24/02/24 20.25 7.2 °C 86 % 5.0 °C 1011.3 hPa 1.0 Km/h NE 0.0 mm  5.6 °C 14.1 °C
Salcedo (VI) 24/02/24 20.26 8.0 °C 80 % 4.8 °C 1007.0 hPa 6.5 Km/h ESE 0.3 mm  4.3 °C 11.4 °C
San Benedetto del Tronto (AP) 24/02/24 20.28 11.7 °C 82 % 8.7 °C 1010.0 hPa 0.0 Km/h SSW 0.0 mm  9.3 °C 15.4 °C
San Bortolo ARPAV (VR) 24/02/24 20.00 3.3 °C  %  °C  hPa 12.6 Km/h ESE 0.0 mm  1.9 °C 6.4 °C
San Giacomo di Veglia (TV) 24/02/24 20.06 6.9 °C 89 % 4.7 °C 0.0 hPa 0.0 Km/h - 0.0 mm  5.2 °C 13.8 °C
San Giovanni la Punta Trappeto (CT) 24/02/24 20.25 14.5 °C 83 % 11.7 °C 1012.3 hPa 0.0 Km/h S 0.0 mm  12.7 °C 20.8 °C
San Pietro di Rosā (VI) 24/02/24 20.25 8.8 °C 83 % 6.1 °C 1013.6 hPa 0.0 Km/h NNE 0.0 mm  6.2 °C 14.1 °C
San Pietro in Cariano (VR) 24/02/24 20.19 6.8 °C 90 % 5.3 °C 1008.1 hPa 12.0 Km/h N 28.7 mm  3.7 °C 13.4 °C
San Pietro in Cariano ARPAV (VR) 24/02/24 20.00 6.2 °C 93 % 5.2 °C  hPa 0.0 Km/h 2.4 mm  2.4 °C 13.1 °C
San Vito di Negrar (VR) 24/02/24 20.25 6.4 °C 87 % 4.4 °C 1010.7 hPa 1.6 Km/h N 5.8 mm  3.3 °C 14.2 °C
San Zeno di Mont. Loc. Castello (VR) 24/02/24 20.25 3.3 °C 86 % 1.1 °C 1009.0 hPa 4.8 Km/h SE 3.2 mm  2.4 °C 7.8 °C
Sant'Apollinare ARPAV (RO) 24/02/24 20.00 8.3 °C 100 % 8.3 °C  hPa 4.7 Km/h SE 0.0 mm  2.5 °C 15.5 °C
Santa Maria di Negrar (VR) 24/02/24 20.14 6.9 °C 86 % 4.7 °C 1010.5 hPa 3.5 Km/h NNW 3.6 mm  3.5 °C 14.4 °C
Santarcangelo di Romagna (RN) 24/02/24 20.29 8.4 °C 83 % 5.7 °C 1004.5 hPa 3.7 Km/h WNW 0.0 mm  -10.0 °C 15.6 °C
Santo Stefano di Cadore ARPAV (BL) 24/02/24 20.00 0.8 °C 100 % 0.8 °C  hPa 2.5 Km/h SSW 2.0 mm  -0.5 °C 4.1 °C
Sappada ARPAV (BL) 24/02/24 20.00 -0.6 °C 100 % -0.6 °C  hPa 2.5 Km/h ESE 3.4 mm  -2.1 °C 2.2 °C
Sarcedo (VI) 24/02/24 20.25 8.7 °C 84 % 6.1 °C 1007.7 hPa 4.3 Km/h ESE 0.0 mm  3.3 °C 14.2 °C
Schifflange (LUX) 24/02/24 20.14 4.5 °C 81 % 1.6 °C 1024.0 hPa 3.2 Km/h ESE 5.8 mm  2.0 °C 7.5 °C
Schio (VI) 24/02/24 19.45 8.1 °C 88 % 6.2 °C 1011.2 hPa 0.0 Km/h --- 0.8 mm  3.7 °C 11.8 °C
Seremange Erzange (Moselle) 24/02/24 20.28 3.1 °C 88 % 1.3 °C 1005.9 hPa 0.0 Km/h SSE 3.8 mm  2.7 °C 7.4 °C
Sinnai (CA) 24/02/24 20.26 9.9 °C 83 % 7.1 °C 1009.7 hPa 1.6 Km/h N 3.0 mm  7.3 °C 15.6 °C
Soave Borgo Bassano (VR) 24/02/24 20.29 10.6 °C 75 % 6.3 °C 1009.9 hPa 6.4 Km/h ENE 0.2 mm  4.1 °C 13.0 °C
Sorgā ARPAV (VR) 24/02/24 20.00 9.6 °C 94 % 8.7 °C  hPa 5.8 Km/h NE 0.0 mm  2.7 °C 13.5 °C
Soriso (NO) 24/02/24 20.30 5.2 °C 93 % 4.2 °C 1010.1 hPa 0.0 Km/h WSW 0.8 mm  5.0 °C 8.4 °C
Stiore - Monteveglio (BO) 24/02/24 20.29 8.1 °C 78 % 4.5 °C 1006.7 hPa 6.4 Km/h SSE 0.3 mm  3.7 °C 13.6 °C
Tambre Loc. Frassinei (BL) 24/02/24 20.22 1.8 °C 97 % 1.2 °C 0.0 hPa 0.0 Km/h - 5.2 mm  0.1 °C 7.1 °C
Taranto (TA) 24/02/24 20.29 14.9 °C 90 % 13.3 °C 1012.9 hPa 5.2 Km/h SW 5.3 mm  13.2 °C 15.3 °C
Tarmassia (VR) 24/02/24 20.26 9.2 °C 89 % 7.5 °C 1010.8 hPa 2.3 Km/h E 0.2 mm  2.9 °C 12.9 °C
Teolo ARPAV (PD) 24/02/24 20.00 8.9 °C 88 % 7.0 °C 1010.5 hPa 2.9 Km/h NE 0.2 mm  3.5 °C 11.8 °C
Todi (PG) 24/02/24 20.25 8.3 °C 74 % 3.9 °C 1010.7 hPa 3.0 Km/h ESE 0.2 mm  5.7 °C 12.8 °C
Tombolo (PD) 24/02/24 20.29 8.7 °C 88 % 6.8 °C 1010.7 hPa 5.6 Km/h ENE 0.2 mm  3.7 °C 13.3 °C
Tortoreto (TE) 24/02/24 20.29 10.2 °C 88 % 8.3 °C 1010.6 hPa 8.0 Km/h SW 0.0 mm  8.8 °C 13.1 °C
Trambileno (TN) 24/02/24 20.25 5.0 °C 86 % 2.9 °C 1009.4 hPa 0.0 Km/h ENE 1.0 mm  0.0 °C 7.0 °C
Trento (TN) 24/02/24 20.24 6.7 °C 84 % 4.2 °C 1011.0 hPa 1.6 Km/h NW 2.8 mm  3.1 °C 9.0 °C
Treviso ARPAV (TV) 24/02/24 20.00 7.2 °C 100 % 7.2 °C 1010.9 hPa 0.0 Km/h 0.0 mm  4.2 °C 13.8 °C
Tribano ARPAV (PD) 24/02/24 20.00 8.1 °C 100 % 8.1 °C  hPa 6.1 Km/h ENE 0.2 mm  2.5 °C 13.5 °C
Turcati ARPAV (VI) 24/02/24 20.00 4.3 °C 87 % 2.3 °C  hPa 0.0 Km/h 3.4 mm  2.3 °C 6.1 °C
Val Lastaro (VI) 24/02/24 20.15 1.4 °C 90 % 0.0 °C 1011.5 hPa 0.0 Km/h SSE 1.4 mm  -3.3 °C 3.7 °C
Val Salatis ARPAV (BL) 24/02/24 20.00 -5.0 °C 100 % -5.0 °C  hPa 0.0 Km/h N 0.0 mm  -6.7 °C -2.7 °C
Valdagno (VI) 24/02/24 20.25 8.8 °C 10 % -21.2 °C 1006.5 hPa 0.0 Km/h N 16.5 mm  0.0 °C 8.8 °C
Valdobbiadene San Pietro di Barbozza (TV) 24/02/24 20.24 8.2 °C 84 % 5.7 °C 1010.5 hPa 4.8 Km/h NW 0.5 mm  4.4 °C 11.8 °C
Valeggio sul Mincio ARPAV (VR) 24/02/24 20.00 9.2 °C 81 % 6.1 °C  hPa 2.9 Km/h NW 0.2 mm  2.2 °C 14.6 °C
Valentano (VT) 24/02/24 20.32 7.2 °C 71 % 2.2 °C 1010.0 hPa 3.2 Km/h N 2.8 mm  6.6 °C 10.4 °C
Valenza (AL) 24/02/24 20.25 7.2 °C 83 % 4.5 °C 1008.7 hPa 0.0 Km/h SSE 0.2 mm  2.7 °C 8.5 °C
Valle del Cadore ARPAV (BL) 24/02/24 20.00 1.8 °C  %  °C  hPa 1.4 Km/h WNW 2.2 mm  0.0 °C 7.5 °C
Valli del Pasubio ARPAV (VI) 24/02/24 20.00 4.7 °C 92 % 3.5 °C  hPa 5.0 Km/h NNW 3.2 mm  2.8 °C 7.1 °C
Valli del Pasubio Contrā Pietra (VI) 24/02/24 20.29 5.2 °C 85 % 2.9 °C 1011.0 hPa 1.4 Km/h ENE 3.2 mm  2.1 °C 7.2 °C
Valli del Pasubio loc. Gisbenti (VI) 24/02/24 20.13 5.8 °C 92 % 4.5 °C 962.3 hPa 0.8 Km/h WNW 3.5 mm  0.3 °C 8.3 °C
Vangadizza ARPAV (VR) 24/02/24 20.00 9.8 °C 92 % 8.6 °C  hPa 6.1 Km/h SE 0.0 mm  3.7 °C 14.3 °C
Vazzola - Tezze ARPAV (TV) 24/02/24 20.00 8.3 °C 92 % 7.1 °C  hPa 6.5 Km/h NNE 0.2 mm  4.7 °C 13.3 °C
Venezia - Istituto Cavanis ARPAV (VE) 24/02/24 20.00 10.7 °C 95 % 9.9 °C 1010.7 hPa 4.0 Km/h E 0.0 mm  7.4 °C 14.9 °C
Verona Bgo Roma Comune ''Brugnoli'' (VR) 24/02/24 20.27 8.7 °C 76 % 4.7 °C 1008.8 hPa 0.0 Km/h --- 0.4 mm  3.7 °C 13.4 °C
Verona Bgo Venezia (iz3sly) (VR) 24/02/24 20.10 8.3 °C 82 % 5.4 °C 1008.1 hPa 0.0 Km/h W 0.3 mm  2.9 °C 13.5 °C
Verona Cadidavid2 (VR) 24/02/24 20.20 9.9 °C 79 % 6.4 °C 1010.5 hPa 5.8 Km/h SSE 67.6 mm  5.8 °C 11.6 °C
Verona Centro Comune ''Bellavite'' (VR) 24/02/24 20.27 9.5 °C 80 % 6.2 °C 1010.8 hPa 0.0 Km/h --- 0.4 mm  4.3 °C 13.9 °C
Verona Croce Bianca (VR) 24/02/24 20.30 7.5 °C 88 % 5.6 °C 1010.1 hPa 1.6 Km/h N 2.4 mm  1.7 °C 13.8 °C
Verona Golosine (VR) 24/02/24 20.30 7.9 °C 81 % 4.8 °C 1010.4 hPa 3.2 Km/h N 2.0 mm  3.7 °C 12.8 °C
Verona S. Caterina ARPAV (VR) 24/02/24 20.00 9.0 °C 84 % 6.4 °C  hPa 5.8 Km/h NNW 0.2 mm  2.5 °C 13.3 °C
Verona Saval3 (VR) 24/02/24 20.14 7.3 °C 86 % 5.1 °C 1011.5 hPa 2.7 Km/h NNW 8.0 mm  3.8 °C 14.4 °C
Vicenza Campedello (VI) 24/02/24 20.00 7.4 °C 83 % 4.7 °C 1010.7 hPa 0.0 Km/h SE 0.2 mm  4.7 °C 13.3 °C
Vicenza S. Lazzaro (VI) 24/02/24 20.25 10.0 °C 84 % 7.4 °C 1009.2 hPa 5.0 Km/h ENE 0.0 mm  6.0 °C 13.0 °C
Vicenza San Gaetano (VI) 24/02/24 20.26 9.7 °C 34 % -5.4 °C 1010.2 hPa 0.0 Km/h N 0.0 mm  6.2 °C 13.9 °C
Vidor (TV) 24/02/24 20.25 7.7 °C 89 % 6.0 °C 1010.4 hPa 4.1 Km/h ENE 0.0 mm  5.0 °C 14.2 °C
Vieste (FG) 24/02/24 20.29 11.9 °C 76 % 7.8 °C 1012.5 hPa 8.9 Km/h SSE 0.0 mm  11.8 °C 15.5 °C
Vigardolo (VI) 24/02/24 20.25 9.7 °C 72 % 4.9 °C 1007.1 hPa 1.8 Km/h NE 0.3 mm  5.3 °C 15.2 °C
Vigasio (VR) 24/02/24 20.10 10.8 °C 83 % 8.1 °C 1009.9 hPa 0.0 Km/h ENE 0.2 mm  3.2 °C 13.9 °C
Vigasio2 (VR) 24/02/24 20.26 9.9 °C 87 % 7.8 °C 1010.5 hPa 2.9 Km/h NE 0.0 mm  2.3 °C 13.0 °C
Villabartolomea (VR) 24/02/24 20.25 9.6 °C 90 % 8.0 °C 1008.1 hPa 0.0 Km/h E 0.4 mm  4.1 °C 13.7 °C
Villafranca di Verona (VR) 24/02/24 20.14 10.4 °C 83 % 7.7 °C 1012.7 hPa 1.6 Km/h W 0.0 mm  2.9 °C 14.3 °C
Villafranca di Verona ARPAV (VR) 24/02/24 20.00 9.0 °C 85 % 6.6 °C  hPa 5.0 Km/h N 0.0 mm  1.5 °C 13.1 °C
Villanova ARPAV (BL) 24/02/24 20.00 0.3 °C 100 % 0.3 °C  hPa 2.2 Km/h SW 3.4 mm  -1.5 °C 2.9 °C
Villar Perosa (TO) 24/02/24 20.24 4.0 °C 88 % 2.2 °C 1009.2 hPa 3.1 Km/h ESE 0.0 mm  0.1 °C 8.1 °C
Viozene Toria (CN) 24/02/24 19.12 2.6 °C 60 % -4.4 °C 999.7 hPa 3.0 Km/h E 0.0 mm  -1.2 °C 4.8 °C
Viterbo Santa Barbara (VT) 24/02/24 20.19 8.7 °C 71 % 3.7 °C 1009.9 hPa 15.6 Km/h SE 0.4 mm  7.1 °C 13.2 °C
Vittorio Veneto (TV) 24/02/24 20.10 8.3 °C 83 % 5.6 °C 1010.8 hPa 0.0 Km/h SSE 0.3 mm  5.9 °C 13.8 °C
Vittorio Veneto ARPAV (TV) 24/02/24 20.00 7.7 °C 90 % 6.2 °C  hPa 2.9 Km/h WNW 0.2 mm  5.9 °C 14.1 °C
Vittorio Veneto Fraz. Borgo Colesei (TV) 24/02/24 20.14 6.8 °C 89 % 5.1 °C 1012.0 hPa 0.0 Km/h SSE 1.6 mm  4.1 °C 11.5 °C
Vittorio Veneto Fraz. Ceneda (TV) 24/02/24 20.14 7.6 °C 81 % 4.5 °C 1009.5 hPa 0.0 Km/h W 0.3 mm  5.8 °C 14.1 °C
Vittorio Veneto Loc. Serravalle (TV) 24/02/24 20.21 7.3 °C 84 % 4.8 °C 0.0 hPa 0.0 Km/h - 0.0 mm  5.6 °C 11.4 °C
Vittorio Veneto2 (TV) 24/02/24 20.24 6.7 °C 87 % 4.7 °C 989.5 hPa 1.6 Km/h NE 0.0 mm  5.6 °C 13.6 °C
Volpago del Montello (TV) 24/02/24 20.30 6.3 °C 78 % 2.7 °C 1010.4 hPa 0.0 Km/h --- 0.0 mm  6.0 °C 12.0 °C
Volpago del Montello ARPAV (TV) 24/02/24 20.00 7.6 °C 99 % 7.5 °C  hPa 7.6 Km/h NNE 0.0 mm  5.3 °C 12.7 °C
Zevio (VR) 24/02/24 20.25 10.6 °C 70 % 5.4 °C 1009.1 hPa 1.1 Km/h NE 0.3 mm  5.9 °C 14.2 °C
Zevio Centro (VR) 24/02/24 20.26 10.2 °C 79 % 6.7 °C 1009.7 hPa 1.6 Km/h NE 0.0 mm  4.9 °C 13.4 °C
 
(*) = Precipitazioni nelle ultime 24h.
Dati non aggiornati nelle ultime 2h.
   
In collaborazione con:
 
Top! Top!